createdAt,value
2022-09-04T00:00:00.878Z,61.08
2022-09-04T00:01:00.938Z,60.98
2022-09-04T00:02:00.921Z,60.68
2022-09-04T00:03:01.033Z,61.18
2022-09-04T00:04:01.028Z,61.08
2022-09-04T00:05:01.025Z,60.88
2022-09-04T00:06:00.938Z,60.58
2022-09-04T00:07:00.894Z,60.48
2022-09-04T00:08:00.917Z,60.58
2022-09-04T00:09:00.881Z,61.21
2022-09-04T00:10:00.813Z,61.11
2022-09-04T00:11:00.717Z,61.01
2022-09-04T00:12:00.888Z,61.21
2022-09-04T00:13:00.837Z,61.21
2022-09-04T00:14:00.803Z,61.11
2022-09-04T00:15:00.696Z,60.71
2022-09-04T00:16:02.000Z,60.71
2022-09-04T00:17:00.706Z,60.91
2022-09-04T00:18:00.714Z,60.71
2022-09-04T00:19:00.753Z,61.32
2022-09-04T00:20:00.559Z,61.61
2022-09-04T00:21:00.644Z,61.61
2022-09-04T00:22:00.598Z,61.82
2022-09-04T00:23:00.497Z,61.41
2022-09-04T00:24:03.764Z,61.61
2022-09-04T00:25:00.671Z,62.32
2022-09-04T00:26:00.700Z,62.15
2022-09-04T00:27:00.539Z,62.35
2022-09-04T00:28:01.393Z,62.35
2022-09-04T00:29:04.879Z,61.95
2022-09-04T00:30:00.528Z,62.05
2022-09-04T00:31:00.628Z,62.25
2022-09-04T00:32:00.430Z,62.65
2022-09-04T00:33:00.540Z,62.76
2022-09-04T00:34:00.618Z,62.55
2022-09-04T00:35:00.438Z,62.65
2022-09-04T00:36:00.836Z,62.65
2022-09-04T00:37:00.557Z,62.55
2022-09-04T00:38:00.360Z,62.55
2022-09-04T00:39:00.409Z,62.96
2022-09-04T00:40:00.470Z,62.76
2022-09-04T00:41:00.308Z,63.06
2022-09-04T00:42:00.361Z,62.88
2022-09-04T00:43:00.336Z,63.19
2022-09-04T00:44:00.447Z,62.68
2022-09-04T00:45:00.533Z,62.48
2022-09-04T00:46:00.291Z,62.79
2022-09-04T00:47:00.751Z,62.79
2022-09-04T00:48:21.313Z,62.99
2022-09-04T00:49:00.371Z,62.65
2022-09-04T00:50:00.342Z,62.48
2022-09-04T00:51:00.427Z,62.48
2022-09-04T00:52:00.285Z,62.48
2022-09-04T00:53:00.385Z,62.99
2022-09-04T00:54:00.252Z,62.68
2022-09-04T00:55:00.329Z,62.88
2022-09-04T00:56:00.204Z,63.39
2022-09-04T00:57:00.408Z,63.19
2022-09-04T00:58:00.128Z,62.99
2022-09-04T00:59:00.084Z,62.88
2022-09-04T01:00:00.151Z,63.09
2022-09-04T01:01:00.162Z,62.99
2022-09-04T01:02:00.201Z,63.70
2022-09-04T01:03:00.146Z,63.09
2022-09-04T01:04:02.096Z,63.49
2022-09-04T01:05:01.091Z,63.29
2022-09-04T01:06:00.219Z,63.29
2022-09-04T01:07:00.158Z,63.02
2022-09-04T01:08:00.178Z,63.62
2022-09-04T01:09:00.042Z,63.22
2022-09-04T01:10:00.298Z,63.42
2022-09-04T01:11:00.068Z,63.42
2022-09-04T01:11:59.990Z,63.22
2022-09-04T01:12:59.885Z,63.22
2022-09-04T01:14:00.018Z,63.12
2022-09-04T01:14:59.944Z,62.92
2022-09-04T01:15:59.946Z,63.52
2022-09-04T01:17:00.340Z,63.52
2022-09-04T01:17:59.867Z,63.32
2022-09-04T01:18:59.883Z,63.52
2022-09-04T01:19:59.909Z,63.22
2022-09-04T01:20:59.753Z,63.22
2022-09-04T01:21:59.784Z,62.92
2022-09-04T01:22:59.743Z,63.52
2022-09-04T01:23:59.856Z,63.52
2022-09-04T01:25:00.998Z,63.52
2022-09-04T01:25:59.842Z,63.32
2022-09-04T01:26:59.807Z,63.52
2022-09-04T01:27:59.745Z,63.52
2022-09-04T01:28:59.650Z,63.52
2022-09-04T01:29:59.770Z,63.52
2022-09-04T01:30:59.730Z,64.03
2022-09-04T01:31:59.836Z,64.13
2022-09-04T01:32:59.684Z,63.65
2022-09-04T01:33:59.619Z,64.06
2022-09-04T01:34:59.644Z,64.16
2022-09-04T01:36:03.787Z,63.85
2022-09-04T01:36:59.658Z,64.26
2022-09-04T01:37:59.648Z,64.26
2022-09-04T01:38:59.558Z,64.56
2022-09-04T01:39:59.651Z,64.36
2022-09-04T01:40:59.596Z,64.67
2022-09-04T01:41:59.491Z,64.56
2022-09-04T01:42:59.512Z,64.06
2022-09-04T01:43:59.541Z,64.06
2022-09-04T01:44:59.512Z,64.06
2022-09-04T01:45:59.505Z,64.36
2022-09-04T01:46:59.430Z,64.67
2022-09-04T01:47:59.449Z,64.36
2022-09-04T01:48:59.390Z,64.67
2022-09-04T01:49:59.370Z,64.56
2022-09-04T01:50:59.475Z,64.46
2022-09-04T01:51:59.558Z,64.67
2022-09-04T01:52:59.346Z,64.76
2022-09-04T01:53:59.491Z,64.67
2022-09-04T01:54:59.532Z,64.46
2022-09-04T01:55:59.663Z,64.26
2022-09-04T01:56:59.314Z,64.26
2022-09-04T01:57:59.371Z,63.96
2022-09-04T01:58:59.806Z,63.65
2022-09-04T02:00:00.304Z,64.46
2022-09-04T02:00:59.427Z,64.67
2022-09-04T02:01:59.470Z,64.26
2022-09-04T02:02:59.391Z,64.36
2022-09-04T02:03:59.499Z,64.06
2022-09-04T02:04:59.447Z,63.85
2022-09-04T02:05:59.232Z,64.16
2022-09-04T02:06:59.325Z,64.26
2022-09-04T02:07:59.197Z,64.16
2022-09-04T02:08:59.269Z,64.26
2022-09-04T02:09:59.229Z,64.16
2022-09-04T02:10:59.295Z,63.76
2022-09-04T02:11:59.200Z,64.36
2022-09-04T02:12:59.294Z,64.26
2022-09-04T02:13:59.919Z,64.56
2022-09-04T02:14:59.311Z,65.20
2022-09-04T02:15:59.174Z,65.20
2022-09-04T02:16:59.062Z,65.10
2022-09-04T02:17:59.063Z,65.30
2022-09-04T02:18:59.259Z,65.81
2022-09-04T02:19:59.315Z,65.50
2022-09-04T02:21:00.247Z,65.50
2022-09-04T02:21:59.346Z,65.50
2022-09-04T02:22:59.439Z,66.01
2022-09-04T02:23:58.969Z,66.11
2022-09-04T02:25:00.246Z,66.35
2022-09-04T02:25:58.930Z,66.14
2022-09-04T02:26:59.116Z,65.73
2022-09-04T02:27:58.965Z,66.24
2022-09-04T02:28:59.063Z,65.84
2022-09-04T02:29:58.919Z,65.91
2022-09-04T02:30:58.877Z,65.50
2022-09-04T02:31:58.936Z,65.20
2022-09-04T02:32:58.862Z,65.10
2022-09-04T02:33:58.901Z,64.79
2022-09-04T02:34:58.880Z,65.10
2022-09-04T02:35:58.814Z,65.20
2022-09-04T02:36:58.795Z,65.20
2022-09-04T02:37:58.816Z,65.30
2022-09-04T02:38:58.818Z,65.40
2022-09-04T02:39:58.772Z,65.53
2022-09-04T02:40:58.784Z,65.84
2022-09-04T02:41:58.707Z,65.84
2022-09-04T02:42:59.201Z,66.04
2022-09-04T02:43:58.797Z,65.84
2022-09-04T02:44:58.820Z,65.94
2022-09-04T02:45:58.681Z,65.84
2022-09-04T02:46:58.874Z,65.73
2022-09-04T02:47:58.735Z,65.33
2022-09-04T02:48:58.681Z,65.03
2022-09-04T02:49:58.702Z,65.43
2022-09-04T02:50:58.727Z,65.33
2022-09-04T02:51:58.597Z,65.23
2022-09-04T02:52:58.872Z,65.13
2022-09-04T02:53:58.748Z,65.33
2022-09-04T02:54:58.566Z,65.73
2022-09-04T02:55:58.677Z,65.43
2022-09-04T02:56:58.520Z,65.33
2022-09-04T02:57:58.584Z,65.33
2022-09-04T02:58:58.732Z,65.13
2022-09-04T02:59:58.570Z,65.23
2022-09-04T03:00:58.688Z,65.13
2022-09-04T03:01:58.598Z,65.73
2022-09-04T03:02:58.528Z,66.44
2022-09-04T03:03:58.452Z,66.24
2022-09-04T03:04:58.586Z,65.94
2022-09-04T03:05:58.502Z,65.64
2022-09-04T03:06:58.390Z,65.97
2022-09-04T03:07:58.616Z,65.87
2022-09-04T03:08:58.535Z,65.67
2022-09-04T03:09:58.506Z,65.67
2022-09-04T03:10:58.361Z,65.77
2022-09-04T03:11:58.513Z,65.77
2022-09-04T03:12:58.347Z,65.97
2022-09-04T03:13:58.508Z,65.77
2022-09-04T03:14:58.293Z,66.07
2022-09-04T03:15:58.382Z,65.87
2022-09-04T03:16:58.325Z,65.87
2022-09-04T03:17:58.338Z,65.97
2022-09-04T03:18:58.281Z,65.97
2022-09-04T03:19:58.396Z,66.17
2022-09-04T03:20:58.330Z,66.27
2022-09-04T03:21:58.241Z,65.77
2022-09-04T03:22:58.317Z,65.97
2022-09-04T03:23:58.142Z,66.58
2022-09-04T03:24:58.260Z,66.58
2022-09-04T03:25:58.189Z,66.38
2022-09-04T03:26:58.307Z,66.91
2022-09-04T03:27:59.249Z,66.91
2022-09-04T03:28:58.167Z,67.72
2022-09-04T03:29:58.102Z,67.42
2022-09-04T03:30:58.104Z,67.22
2022-09-04T03:31:58.098Z,66.81
2022-09-04T03:32:58.112Z,66.61
2022-09-04T03:33:58.144Z,66.41
2022-09-04T03:34:58.463Z,67.11
2022-09-04T03:35:58.200Z,66.41
2022-09-04T03:36:57.968Z,67.52
2022-09-04T03:37:58.315Z,67.62
2022-09-04T03:38:58.123Z,67.01
2022-09-04T03:39:58.114Z,67.11
2022-09-04T03:40:58.332Z,66.50
2022-09-04T03:41:58.085Z,66.50
2022-09-04T03:42:58.001Z,67.62
2022-09-04T03:43:57.981Z,67.52
2022-09-04T03:44:57.856Z,67.93
2022-09-04T03:45:58.865Z,68.33
2022-09-04T03:46:58.206Z,67.82
2022-09-04T03:47:58.111Z,67.96
2022-09-04T03:48:58.230Z,68.06
2022-09-04T03:49:57.835Z,67.35
2022-09-04T03:50:57.841Z,67.76
2022-09-04T03:51:57.818Z,67.96
2022-09-04T03:52:58.058Z,68.16
2022-09-04T03:53:57.721Z,68.26
2022-09-04T03:54:57.756Z,68.36
2022-09-04T03:55:57.820Z,67.35
2022-09-04T03:56:57.685Z,67.65
2022-09-04T03:57:57.836Z,67.55
2022-09-04T03:58:57.736Z,67.76
2022-09-04T03:59:57.818Z,68.26
2022-09-04T04:00:57.888Z,68.16
2022-09-04T04:01:57.811Z,67.76
2022-09-04T04:02:57.855Z,67.76
2022-09-04T04:03:57.700Z,67.65
2022-09-04T04:04:57.775Z,68.26
2022-09-04T04:05:57.613Z,68.26
2022-09-04T04:06:57.592Z,67.55
2022-09-04T04:07:57.584Z,67.45
2022-09-04T04:08:57.541Z,67.35
2022-09-04T04:09:57.510Z,67.35
2022-09-04T04:10:57.561Z,67.96
2022-09-04T04:11:57.673Z,67.76
2022-09-04T04:12:57.539Z,67.45
2022-09-04T04:13:57.574Z,67.76
2022-09-04T04:14:57.470Z,68.46
2022-09-04T04:15:57.631Z,68.66
2022-09-04T04:16:57.604Z,68.87
2022-09-04T04:17:57.487Z,68.56
2022-09-04T04:18:57.476Z,69.27
2022-09-04T04:19:57.457Z,69.48
2022-09-04T04:20:57.563Z,69.61
2022-09-04T04:21:57.564Z,69.10
2022-09-04T04:22:57.413Z,69.51
2022-09-04T04:23:57.383Z,69.92
2022-09-04T04:24:57.386Z,69.81
2022-09-04T04:25:57.473Z,69.51
2022-09-04T04:26:57.358Z,69.92
2022-09-04T04:27:57.376Z,69.81
2022-09-04T04:28:57.420Z,70.12
2022-09-04T04:29:57.271Z,70.21
2022-09-04T04:30:57.384Z,70.21
2022-09-04T04:31:57.296Z,69.10
2022-09-04T04:32:57.320Z,69.51
2022-09-04T04:33:57.210Z,69.10
2022-09-04T04:34:57.360Z,68.60
2022-09-04T04:35:57.196Z,68.40
2022-09-04T04:36:57.271Z,68.29
2022-09-04T04:37:57.246Z,68.80
2022-09-04T04:38:57.319Z,68.49
2022-09-04T04:39:57.187Z,69.51
2022-09-04T04:40:57.230Z,69.41
2022-09-04T04:41:57.190Z,69.10
2022-09-04T04:42:57.124Z,69.51
2022-09-04T04:43:57.121Z,70.01
2022-09-04T04:44:57.317Z,69.20
2022-09-04T04:45:57.046Z,69.20
2022-09-04T04:46:57.417Z,68.80
2022-09-04T04:47:57.263Z,69.10
2022-09-04T04:48:57.140Z,69.31
2022-09-04T04:49:57.153Z,69.20
2022-09-04T04:50:56.970Z,69.10
2022-09-04T04:51:57.093Z,68.90
2022-09-04T04:52:57.025Z,69.71
2022-09-04T04:53:56.970Z,69.61
2022-09-04T04:54:56.930Z,69.20
2022-09-04T04:55:57.084Z,68.80
2022-09-04T04:56:56.866Z,69.10
2022-09-04T04:57:56.992Z,69.61
2022-09-04T04:58:56.956Z,69.81
2022-09-04T04:59:56.933Z,69.13
2022-09-04T05:00:56.899Z,69.44
2022-09-04T05:01:56.973Z,69.95
2022-09-04T05:02:56.930Z,69.64
2022-09-04T05:03:56.859Z,70.35
2022-09-04T05:04:56.856Z,70.56
2022-09-04T05:05:56.816Z,70.76
2022-09-04T05:06:56.798Z,69.03
2022-09-04T05:07:56.924Z,70.15
2022-09-04T05:08:56.855Z,70.65
2022-09-04T05:09:56.791Z,69.44
2022-09-04T05:10:56.750Z,70.05
2022-09-04T05:11:56.752Z,69.34
2022-09-04T05:12:56.899Z,69.64
2022-09-04T05:13:56.643Z,70.25
2022-09-04T05:14:56.717Z,69.24
2022-09-04T05:16:09.097Z,70.25
2022-09-04T05:16:57.743Z,70.56
2022-09-04T05:17:56.758Z,70.25
2022-09-04T05:18:56.697Z,70.45
2022-09-04T05:19:56.706Z,70.56
2022-09-04T05:20:56.641Z,70.56
2022-09-04T05:21:56.676Z,70.25
2022-09-04T05:22:56.678Z,70.56
2022-09-04T05:23:56.696Z,70.45
2022-09-04T05:24:56.694Z,70.86
2022-09-04T05:25:56.547Z,71.16
2022-09-04T05:26:56.547Z,70.76
2022-09-04T05:27:56.507Z,70.45
2022-09-04T05:28:56.558Z,70.65
2022-09-04T05:29:56.539Z,70.65
2022-09-04T05:30:56.612Z,70.96
2022-09-04T05:31:56.484Z,70.86
2022-09-04T05:32:56.445Z,70.65
2022-09-04T05:33:57.454Z,70.65
2022-09-04T05:34:56.489Z,70.56
2022-09-04T05:35:56.451Z,70.86
2022-09-04T05:36:56.529Z,70.56
2022-09-04T05:37:56.384Z,70.86
2022-09-04T05:38:56.537Z,70.96
2022-09-04T05:39:56.513Z,70.21
2022-09-04T05:40:56.459Z,70.76
2022-09-04T05:41:56.365Z,70.62
2022-09-04T05:42:56.261Z,70.32
2022-09-04T05:43:56.371Z,70.42
2022-09-04T05:44:56.430Z,70.72
2022-09-04T05:45:56.576Z,70.42
2022-09-04T05:46:56.404Z,70.52
2022-09-04T05:47:56.249Z,70.52
2022-09-04T05:48:56.393Z,70.72
2022-09-04T05:49:56.361Z,70.83
2022-09-04T05:50:56.529Z,70.32
2022-09-04T05:51:56.300Z,70.52
2022-09-04T05:52:56.173Z,70.32
2022-09-04T05:54:00.756Z,70.83
2022-09-04T05:54:56.152Z,70.32
2022-09-04T05:55:56.260Z,70.72
2022-09-04T05:56:56.200Z,70.72
2022-09-04T05:57:56.120Z,70.72
2022-09-04T05:58:56.135Z,70.32
2022-09-04T05:59:56.270Z,70.62
2022-09-04T06:00:56.127Z,70.32
2022-09-04T06:01:56.101Z,70.52
2022-09-04T06:02:56.131Z,70.62
2022-09-04T06:03:56.202Z,70.21
2022-09-04T06:04:55.996Z,70.42
2022-09-04T06:05:56.109Z,70.39
2022-09-04T06:06:56.049Z,70.39
2022-09-04T06:07:56.178Z,70.29
2022-09-04T06:08:55.987Z,70.39
2022-09-04T06:09:55.993Z,70.79
2022-09-04T06:10:56.022Z,70.08
2022-09-04T06:11:56.087Z,70.08
2022-09-04T06:12:55.879Z,70.18
2022-09-04T06:13:55.870Z,70.18
2022-09-04T06:14:55.851Z,69.98
2022-09-04T06:15:56.007Z,70.08
2022-09-04T06:16:55.887Z,69.88
2022-09-04T06:17:55.939Z,70.39
2022-09-04T06:18:55.953Z,70.05
2022-09-04T06:19:55.866Z,70.05
2022-09-04T06:20:55.915Z,70.15
2022-09-04T06:21:55.919Z,70.25
2022-09-04T06:22:57.663Z,70.36
2022-09-04T06:23:55.810Z,69.95
2022-09-04T06:24:55.995Z,69.85
2022-09-04T06:25:55.862Z,70.36
2022-09-04T06:26:55.734Z,69.74
2022-09-04T06:27:55.883Z,69.85
2022-09-04T06:28:55.682Z,69.74
2022-09-04T06:29:55.752Z,70.05
2022-09-04T06:30:55.861Z,70.22
2022-09-04T06:31:55.747Z,70.12
2022-09-04T06:32:55.682Z,70.22
2022-09-04T06:33:55.682Z,70.02
2022-09-04T06:34:55.674Z,70.32
2022-09-04T06:35:55.643Z,70.02
2022-09-04T06:36:55.585Z,69.81
2022-09-04T06:37:55.547Z,69.81
2022-09-04T06:38:55.527Z,69.92
2022-09-04T06:39:55.774Z,69.71
2022-09-04T06:40:55.664Z,69.89
2022-09-04T06:41:55.619Z,69.78
2022-09-04T06:42:55.687Z,69.58
2022-09-04T06:43:55.528Z,69.27
2022-09-04T06:44:55.513Z,69.68
2022-09-04T06:46:00.184Z,69.27
2022-09-04T06:46:56.574Z,69.07
2022-09-04T06:47:55.480Z,69.27
2022-09-04T06:48:55.542Z,69.45
2022-09-04T06:49:55.531Z,69.14
2022-09-04T06:50:55.708Z,69.04
2022-09-04T06:51:55.461Z,68.94
2022-09-04T06:52:55.358Z,69.24
2022-09-04T06:53:55.500Z,69.04
2022-09-04T06:54:55.432Z,69.04
2022-09-04T06:55:55.609Z,69.14
2022-09-04T06:56:55.468Z,69.04
2022-09-04T06:57:55.318Z,69.21
2022-09-04T06:59:00.587Z,68.91
2022-09-04T06:59:56.390Z,69.01
2022-09-04T07:00:55.410Z,68.91
2022-09-04T07:02:04.292Z,68.60
2022-09-04T07:03:05.726Z,68.60
2022-09-04T07:04:06.416Z,68.47
2022-09-04T07:04:56.204Z,68.17
2022-09-04T07:05:57.306Z,67.86
2022-09-04T07:06:55.383Z,67.73
2022-09-04T07:07:56.031Z,67.63
2022-09-04T07:09:04.108Z,67.53
2022-09-04T07:10:01.179Z,67.63
2022-09-04T07:10:56.417Z,67.19
2022-09-04T07:12:04.911Z,67.10
2022-09-04T07:12:56.637Z,66.99
2022-09-04T07:13:55.744Z,66.99
2022-09-04T07:14:55.268Z,67.19
2022-09-04T07:15:55.233Z,66.96
2022-09-04T07:16:55.127Z,66.86
2022-09-04T07:18:00.723Z,66.66
2022-09-04T07:18:58.434Z,66.56
2022-09-04T07:19:55.824Z,66.76
2022-09-04T07:20:55.312Z,66.56
2022-09-04T07:21:55.305Z,66.42
2022-09-04T07:22:55.324Z,66.42
2022-09-04T07:24:00.278Z,66.53
2022-09-04T07:24:56.071Z,66.33
2022-09-04T07:25:55.116Z,66.22
2022-09-04T07:26:56.268Z,66.33
2022-09-04T07:28:02.266Z,66.53
2022-09-04T07:28:58.843Z,66.13
2022-09-04T07:29:55.964Z,65.92
2022-09-04T07:30:55.645Z,65.89
2022-09-04T07:31:55.171Z,65.79
2022-09-04T07:32:55.107Z,65.89
2022-09-04T07:33:54.918Z,65.69
2022-09-04T07:34:55.049Z,65.59
2022-09-04T07:35:55.109Z,65.79
2022-09-04T07:36:56.494Z,65.89
2022-09-04T07:37:55.880Z,65.79
2022-09-04T07:38:55.033Z,65.76
2022-09-04T07:39:54.945Z,65.56
2022-09-04T07:40:54.866Z,65.56
2022-09-04T07:41:54.845Z,65.26
2022-09-04T07:42:54.777Z,65.26
2022-09-04T07:43:55.160Z,65.53
2022-09-04T07:44:54.919Z,65.33
2022-09-04T07:45:55.997Z,65.22
2022-09-04T07:46:57.364Z,65.22
2022-09-04T07:47:54.799Z,65.33
2022-09-04T07:48:54.796Z,65.33
2022-09-04T07:49:54.735Z,65.62
2022-09-04T07:50:54.640Z,65.62
2022-09-04T07:51:54.689Z,65.33
2022-09-04T07:52:54.641Z,65.19
2022-09-04T07:53:54.659Z,65.30
2022-09-04T07:54:54.625Z,65.39
2022-09-04T07:55:54.664Z,65.30
2022-09-04T07:56:54.691Z,65.09
2022-09-04T07:57:54.542Z,65.30
2022-09-04T07:58:59.646Z,65.39
2022-09-04T07:59:54.516Z,65.39
2022-09-04T08:00:54.622Z,65.50
2022-09-04T08:01:54.704Z,65.39
2022-09-04T08:02:54.766Z,65.59
2022-09-04T08:03:54.982Z,65.90
2022-09-04T08:04:54.501Z,65.56
2022-09-04T08:05:54.583Z,65.36
2022-09-04T08:06:54.532Z,65.06
2022-09-04T08:07:54.813Z,64.83
2022-09-04T08:08:54.504Z,65.33
2022-09-04T08:09:54.378Z,65.13
2022-09-04T08:11:04.142Z,64.93
2022-09-04T08:11:54.451Z,65.20
2022-09-04T08:13:29.061Z,65.10
2022-09-04T08:15:08.533Z,65.41
2022-09-04T08:16:06.962Z,65.30
2022-09-04T08:17:06.961Z,65.20
2022-09-04T08:18:07.206Z,65.10
2022-09-04T08:19:06.857Z,65.37
2022-09-04T08:20:06.630Z,65.37
2022-09-04T08:21:06.518Z,65.37
2022-09-04T08:22:06.551Z,65.67
2022-09-04T08:23:06.444Z,65.27
2022-09-04T08:24:06.799Z,65.04
2022-09-04T08:25:08.852Z,64.94
2022-09-04T08:26:06.714Z,64.94
2022-09-04T08:27:06.514Z,65.41
2022-09-04T08:28:06.324Z,65.41
2022-09-04T08:29:06.417Z,65.38
2022-09-04T08:30:06.490Z,64.84
2022-09-04T08:31:10.909Z,65.05
2022-09-04T08:32:06.717Z,64.62
2022-09-04T08:33:06.603Z,64.12
2022-09-04T08:34:06.834Z,63.92
2022-09-04T08:35:08.867Z,63.71
2022-09-04T08:36:06.684Z,63.81
2022-09-04T08:37:07.292Z,63.08
2022-09-04T08:38:08.144Z,63.06
2022-09-04T08:39:07.470Z,63.15
2022-09-04T08:40:07.327Z,63.85
2022-09-04T08:41:07.537Z,64.06
2022-09-04T08:42:08.204Z,64.18
2022-09-04T08:43:06.463Z,64.39
2022-09-04T08:44:06.904Z,64.48
2022-09-04T08:45:08.578Z,64.59
2022-09-04T08:46:14.784Z,64.28
2022-09-04T08:47:07.578Z,64.18
2022-09-04T08:48:06.240Z,64.28
2022-09-04T08:49:06.881Z,64.59
2022-09-04T08:50:07.364Z,64.25
2022-09-04T08:51:06.158Z,63.95
2022-09-04T08:52:08.151Z,63.75
2022-09-04T08:53:06.296Z,63.65
2022-09-04T08:54:06.561Z,63.53
2022-09-04T08:55:12.009Z,62.79
2022-09-04T08:56:06.568Z,62.29
2022-09-04T08:57:12.557Z,61.79
2022-09-04T08:58:06.751Z,61.76
2022-09-04T08:59:06.728Z,61.66
2022-09-04T09:00:16.705Z,61.36
2022-09-04T09:01:12.392Z,61.76
2022-09-04T09:02:07.889Z,61.54
2022-09-04T09:03:07.164Z,61.66
2022-09-04T09:04:06.592Z,61.87
2022-09-04T09:05:08.720Z,61.87
2022-09-04T09:06:07.584Z,62.06
2022-09-04T09:07:06.295Z,62.16
2022-09-04T09:08:07.255Z,61.76
2022-09-04T09:09:06.108Z,62.06
2022-09-04T09:10:07.061Z,61.96
2022-09-04T09:11:06.022Z,61.66
2022-09-04T09:12:05.794Z,61.66
2022-09-04T09:13:06.245Z,61.63
2022-09-04T09:14:06.119Z,61.43
2022-09-04T09:15:05.970Z,61.21
2022-09-04T09:16:05.942Z,61.00
2022-09-04T09:18:35.232Z,60.88
2022-09-04T09:19:26.374Z,60.97
2022-09-04T09:20:26.781Z,61.18
2022-09-04T09:21:26.526Z,61.18
2022-09-04T09:22:49.164Z,61.00
2022-09-04T09:25:02.062Z,61.10
2022-09-04T09:26:00.473Z,61.41
2022-09-04T09:27:02.314Z,61.71
2022-09-04T09:28:08.726Z,61.80
2022-09-04T09:28:58.755Z,62.01
2022-09-04T09:30:01.248Z,61.90
2022-09-04T09:30:58.942Z,62.01
2022-09-04T09:32:05.288Z,61.71
2022-09-04T09:32:59.455Z,61.71
2022-09-04T09:33:58.831Z,61.90
2022-09-04T09:34:59.129Z,62.01
2022-09-04T09:35:58.932Z,61.80
2022-09-04T09:37:09.012Z,61.90
2022-09-04T09:38:04.139Z,62.01
2022-09-04T09:39:21.252Z,61.77
2022-09-04T09:39:59.291Z,61.87
2022-09-04T09:40:59.305Z,62.18
2022-09-04T09:42:02.422Z,61.87
2022-09-04T09:42:58.914Z,61.47
2022-09-04T09:43:58.456Z,61.68
2022-09-04T09:44:58.565Z,61.55
2022-09-04T09:45:58.967Z,61.44
2022-09-04T09:48:17.065Z,61.15
2022-09-04T09:48:51.260Z,61.02
2022-09-04T09:49:49.466Z,60.72
2022-09-04T09:50:53.850Z,60.62
2022-09-04T09:52:03.960Z,60.72
2022-09-04T09:52:51.953Z,60.62
2022-09-04T09:53:51.951Z,60.52
2022-09-04T09:54:49.616Z,60.82
2022-09-04T09:56:03.449Z,60.62
2022-09-04T09:56:53.706Z,60.62
2022-09-04T09:57:49.586Z,60.82
2022-09-04T09:59:21.341Z,60.72
2022-09-04T09:59:49.590Z,60.59
2022-09-04T10:00:53.381Z,60.29
2022-09-04T10:03:20.952Z,59.99
2022-09-04T10:04:15.364Z,59.99
2022-09-04T10:05:15.459Z,60.19
2022-09-04T10:06:18.671Z,59.99
2022-09-04T10:07:15.757Z,59.89
2022-09-04T10:08:15.396Z,59.69
2022-09-04T10:09:15.565Z,59.69
2022-09-04T10:10:17.042Z,59.89
2022-09-04T10:11:29.883Z,59.89
2022-09-04T10:13:31.677Z,60.09
2022-09-04T10:14:28.077Z,59.99
2022-09-04T10:15:27.049Z,59.86
2022-09-04T10:16:26.914Z,59.66
2022-09-04T10:17:26.630Z,59.96
2022-09-04T10:18:26.599Z,59.77
2022-09-04T10:19:26.618Z,59.56
2022-09-04T10:20:26.704Z,59.47
2022-09-04T10:21:27.823Z,59.36
2022-09-04T10:22:26.579Z,59.36
2022-09-04T10:23:34.917Z,59.06
2022-09-04T10:24:28.015Z,59.06
2022-09-04T10:25:27.620Z,59.36
2022-09-04T10:26:31.925Z,59.36
2022-09-04T10:27:26.897Z,59.47
2022-09-04T10:28:33.761Z,59.36
2022-09-04T10:29:32.788Z,59.34
2022-09-04T10:31:41.384Z,58.24
2022-09-04T10:32:31.232Z,58.24
2022-09-04T10:33:32.695Z,58.54
2022-09-04T10:34:34.366Z,58.14
2022-09-04T10:35:29.530Z,58.04
2022-09-04T10:38:10.490Z,58.54
2022-09-04T10:39:05.721Z,58.54
2022-09-04T10:40:05.386Z,58.24
2022-09-04T10:41:05.206Z,58.22
2022-09-04T10:42:05.094Z,58.11
2022-09-04T10:43:05.433Z,58.22
2022-09-04T10:44:05.044Z,57.71
2022-09-04T10:45:05.112Z,57.79
2022-09-04T10:46:05.210Z,57.79
2022-09-04T10:47:10.530Z,57.59
2022-09-04T10:48:15.645Z,57.19
2022-09-04T10:49:05.344Z,56.99
2022-09-04T10:50:08.402Z,56.99
2022-09-04T10:51:17.799Z,57.32
2022-09-04T10:52:06.436Z,57.22
2022-09-04T10:53:05.896Z,57.42
2022-09-04T10:54:25.638Z,56.99
2022-09-04T10:55:07.256Z,56.59
2022-09-04T10:56:04.752Z,56.70
2022-09-04T10:57:04.913Z,56.79
2022-09-04T10:58:06.709Z,56.79
2022-09-04T10:59:04.725Z,56.20
2022-09-04T11:00:04.768Z,56.30
2022-09-04T11:01:05.133Z,56.10
2022-09-04T11:02:05.004Z,55.97
2022-09-04T11:03:04.954Z,56.17
2022-09-04T11:04:04.657Z,56.30
2022-09-04T11:05:04.713Z,56.30
2022-09-04T11:06:05.068Z,56.49
2022-09-04T11:08:43.812Z,56.70
2022-09-04T11:09:38.696Z,56.49
2022-09-04T11:10:46.742Z,56.59
2022-09-04T11:11:30.423Z,55.97
2022-09-04T11:12:29.247Z,55.57
2022-09-04T11:13:28.056Z,55.47
2022-09-04T11:15:35.394Z,55.77
2022-09-04T11:15:40.345Z,55.05
2022-09-04T11:16:42.065Z,55.15
2022-09-04T11:17:41.419Z,54.33
2022-09-04T11:18:40.665Z,54.53
2022-09-04T11:21:12.867Z,53.33
2022-09-04T11:22:07.853Z,53.66
2022-09-04T11:23:05.314Z,53.86
2022-09-04T11:24:01.210Z,54.16
2022-09-04T11:25:07.378Z,54.06
2022-09-04T11:26:02.132Z,53.36
2022-09-04T11:27:01.853Z,53.86
2022-09-04T11:28:00.781Z,53.76
2022-09-04T11:30:36.954Z,54.23
2022-09-04T11:31:40.027Z,54.43
2022-09-04T11:32:30.231Z,54.43
2022-09-04T11:34:58.785Z,54.13
2022-09-04T11:35:59.567Z,54.63
2022-09-04T11:38:33.970Z,54.63
2022-09-04T11:39:17.091Z,54.30
2022-09-04T11:40:29.171Z,53.48
2022-09-04T11:41:11.762Z,53.26
2022-09-04T11:42:07.297Z,51.92
2022-09-04T11:44:54.858Z,51.65
2022-09-04T11:45:27.891Z,52.44
2022-09-04T11:46:28.210Z,52.14
2022-09-04T11:47:35.351Z,52.56
2022-09-04T11:58:02.898Z,52.09
2022-09-04T11:58:48.176Z,52.37
2022-09-04T11:59:48.882Z,52.07
2022-09-04T12:08:58.704Z,50.36
2022-09-04T12:11:34.734Z,50.56
2022-09-04T12:12:24.790Z,50.65
2022-09-04T12:13:34.808Z,50.65
2022-09-04T12:17:06.183Z,49.37
2022-09-04T12:18:04.534Z,49.44
2022-09-04T12:24:24.937Z,49.19
2022-09-04T12:25:17.010Z,49.27
2022-09-04T12:26:17.955Z,49.37
2022-09-04T12:33:42.337Z,49.46
2022-09-04T12:34:39.410Z,49.66
2022-09-04T12:35:47.245Z,49.57
2022-09-04T12:36:35.437Z,49.64
2022-09-04T12:37:38.182Z,49.54
2022-09-04T12:41:50.799Z,49.02
2022-09-04T12:43:00.434Z,49.02
2022-09-04T12:43:41.471Z,48.70
2022-09-04T12:44:59.834Z,48.40
2022-09-04T12:45:43.783Z,48.40
2022-09-04T12:46:53.759Z,48.48
2022-09-04T12:48:02.355Z,47.91
2022-09-04T12:49:00.373Z,47.71
2022-09-04T12:49:35.550Z,47.81
2022-09-04T12:50:33.390Z,48.01
2022-09-04T12:51:54.649Z,48.01
2022-09-04T12:52:51.275Z,47.71
2022-09-04T12:53:52.477Z,47.31
2022-09-04T12:54:46.679Z,47.24
2022-09-04T12:55:39.317Z,47.34
2022-09-04T12:56:41.448Z,47.44
2022-09-04T12:59:26.594Z,47.53
2022-09-04T12:59:56.553Z,47.53
2022-09-04T13:00:58.107Z,47.44
2022-09-04T13:01:55.244Z,47.75
2022-09-04T13:02:54.666Z,47.56
2022-09-04T13:04:18.315Z,48.25
2022-09-04T13:04:55.195Z,48.25
2022-09-04T13:05:53.700Z,47.96
2022-09-04T13:06:54.161Z,48.15
2022-09-04T13:28:45.084Z,49.27
2022-09-04T13:29:50.213Z,49.07
2022-09-04T13:30:44.190Z,49.07
2022-09-04T13:31:48.050Z,49.05
2022-09-04T13:32:46.793Z,49.05
2022-09-04T13:33:49.170Z,48.94
2022-09-04T13:34:45.001Z,49.05
2022-09-04T13:35:41.405Z,48.94
2022-09-04T13:36:46.744Z,48.94
2022-09-04T13:39:04.077Z,49.24
2022-09-04T13:41:51.982Z,48.85
2022-09-04T13:42:58.840Z,48.65
2022-09-04T13:50:07.397Z,49.12
2022-09-04T13:50:58.023Z,49.32
2022-09-04T13:52:08.213Z,48.43
2022-09-04T13:53:20.534Z,48.45
2022-09-04T13:53:53.402Z,48.75
2022-09-04T13:54:57.684Z,48.85
2022-09-04T13:56:05.452Z,48.75
2022-09-04T13:56:54.075Z,48.85
2022-09-04T13:57:55.055Z,48.85
2022-09-04T13:59:06.692Z,48.94
2022-09-04T14:01:50.491Z,48.87
2022-09-04T14:02:50.268Z,48.57
2022-09-04T14:05:01.832Z,48.87
2022-09-04T14:06:17.849Z,48.87
2022-09-04T14:07:01.978Z,48.97
2022-09-04T14:07:58.823Z,49.07
2022-09-04T14:09:04.619Z,49.07
2022-09-04T14:09:58.265Z,49.07
2022-09-04T14:11:03.384Z,48.87
2022-09-04T14:12:29.970Z,48.87
2022-09-04T14:13:21.955Z,48.87
2022-09-04T14:17:29.725Z,49.37
2022-09-04T14:18:26.124Z,48.97
2022-09-04T14:19:27.151Z,48.97
2022-09-04T14:20:22.346Z,48.77
2022-09-04T14:21:17.837Z,48.77
2022-09-04T14:22:18.627Z,48.45
2022-09-04T14:23:32.502Z,48.35
2022-09-04T14:24:23.615Z,48.25